sensor_id;sensor_type;location;lat;lon;timestamp;pressure;altitude;pressure_sealevel;temperature;humidity
6096;BME280;25081;42.698;23.298;2023-01-13T00:01:58;95624.70;;;3.20;89.96
6096;BME280;25081;42.698;23.298;2023-01-13T00:04:10;95625.17;;;3.28;90.12
6096;BME280;25081;42.698;23.298;2023-01-13T00:06:21;95622.55;;;3.24;89.88
6096;BME280;25081;42.698;23.298;2023-01-13T00:08:31;95627.31;;;3.16;90.45
6096;BME280;25081;42.698;23.298;2023-01-13T00:10:44;95628.81;;;3.23;90.53
6096;BME280;25081;42.698;23.298;2023-01-13T00:12:51;95622.72;;;3.22;90.12
6096;BME280;25081;42.698;23.298;2023-01-13T00:15:02;95624.54;;;3.30;89.89
6096;BME280;25081;42.698;23.298;2023-01-13T00:17:12;95633.59;;;3.31;89.74
6096;BME280;25081;42.698;23.298;2023-01-13T00:19:23;95631.28;;;3.24;89.91
6096;BME280;25081;42.698;23.298;2023-01-13T00:21:33;95629.45;;;3.16;90.09
6096;BME280;25081;42.698;23.298;2023-01-13T00:23:44;95632.77;;;3.19;90.42
6096;BME280;25081;42.698;23.298;2023-01-13T00:25:56;95630.11;;;3.27;90.07
6096;BME280;25081;42.698;23.298;2023-01-13T00:28:06;95630.44;;;3.15;89.98
6096;BME280;25081;42.698;23.298;2023-01-13T00:30:17;95626.98;;;3.03;90.73
6096;BME280;25081;42.698;23.298;2023-01-13T00:32:28;95625.97;;;2.96;91.02
6096;BME280;25081;42.698;23.298;2023-01-13T00:34:39;95628.47;;;3.01;91.09
6096;BME280;25081;42.698;23.298;2023-01-13T00:36:49;95625.84;;;3.09;90.99
6096;BME280;25081;42.698;23.298;2023-01-13T00:38:59;95628.97;;;3.13;91.00
6096;BME280;25081;42.698;23.298;2023-01-13T00:41:10;95629.95;;;3.12;90.54
6096;BME280;25081;42.698;23.298;2023-01-13T00:43:20;95635.39;;;3.10;90.56
6096;BME280;25081;42.698;23.298;2023-01-13T00:45:33;95624.86;;;3.10;90.53
6096;BME280;25081;42.698;23.298;2023-01-13T00:47:45;95626.00;;;3.16;90.72
6096;BME280;25081;42.698;23.298;2023-01-13T00:49:56;95628.33;;;3.19;90.54
6096;BME280;25081;42.698;23.298;2023-01-13T00:52:07;95620.42;;;3.19;90.28
6096;BME280;25081;42.698;23.298;2023-01-13T00:54:17;95624.36;;;3.11;89.97
6096;BME280;25081;42.698;23.298;2023-01-13T00:56:27;95622.87;;;3.16;90.21
6096;BME280;25081;42.698;23.298;2023-01-13T00:58:38;95626.81;;;3.16;89.97
6096;BME280;25081;42.698;23.298;2023-01-13T01:00:48;95629.27;;;2.98;90.52
6096;BME280;25081;42.698;23.298;2023-01-13T01:02:58;95625.52;;;3.12;90.55
6096;BME280;25081;42.698;23.298;2023-01-13T01:05:10;95628.31;;;3.23;90.25
6096;BME280;25081;42.698;23.298;2023-01-13T01:07:20;95621.05;;;3.17;90.14
6096;BME280;25081;42.698;23.298;2023-01-13T01:09:31;95620.92;;;3.19;89.80
6096;BME280;25081;42.698;23.298;2023-01-13T01:11:42;95621.57;;;3.21;89.75
6096;BME280;25081;42.698;23.298;2023-01-13T01:13:55;95615.14;;;3.23;89.57
6096;BME280;25081;42.698;23.298;2023-01-13T01:16:04;95618.77;;;3.30;89.32
6096;BME280;25081;42.698;23.298;2023-01-13T01:18:15;95620.75;;;3.32;89.36
6096;BME280;25081;42.698;23.298;2023-01-13T01:20:26;95612.17;;;3.14;89.84
6096;BME280;25081;42.698;23.298;2023-01-13T01:22:36;95611.84;;;3.17;90.04
6096;BME280;25081;42.698;23.298;2023-01-13T01:24:48;95612.50;;;3.15;89.76
6096;BME280;25081;42.698;23.298;2023-01-13T01:26:58;95609.54;;;3.14;90.04
6096;BME280;25081;42.698;23.298;2023-01-13T01:29:11;95609.21;;;3.13;90.15
6096;BME280;25081;42.698;23.298;2023-01-13T01:31:24;95612.68;;;3.22;90.07
6096;BME280;25081;42.698;23.298;2023-01-13T01:33:33;95608.06;;;3.11;89.63
6096;BME280;25081;42.698;23.298;2023-01-13T01:35:43;95608.37;;;3.08;90.30
6096;BME280;25081;42.698;23.298;2023-01-13T01:37:53;95604.44;;;3.12;90.17
6096;BME280;25081;42.698;23.298;2023-01-13T01:40:05;95597.52;;;3.15;90.13
6096;BME280;25081;42.698;23.298;2023-01-13T01:42:17;95604.75;;;3.18;89.73
6096;BME280;25081;42.698;23.298;2023-01-13T01:44:55;95600.82;;;3.22;89.79
6096;BME280;25081;42.698;23.298;2023-01-13T01:47:05;95595.87;;;3.35;89.61
6096;BME280;25081;42.698;23.298;2023-01-13T01:49:16;95592.42;;;3.38;89.01
6096;BME280;25081;42.698;23.298;2023-01-13T01:51:26;95597.17;;;3.47;88.69
6096;BME280;25081;42.698;23.298;2023-01-13T01:53:36;95594.07;;;3.39;88.42
6096;BME280;25081;42.698;23.298;2023-01-13T01:55:47;95589.28;;;3.35;88.51
6096;BME280;25081;42.698;23.298;2023-01-13T01:57:59;95594.56;;;3.23;88.81
6096;BME280;25081;42.698;23.298;2023-01-13T02:00:10;95589.47;;;3.21;89.02
6096;BME280;25081;42.698;23.298;2023-01-13T02:02:20;95590.27;;;3.26;89.09
6096;BME280;25081;42.698;23.298;2023-01-13T02:04:32;95594.08;;;3.19;89.08
6096;BME280;25081;42.698;23.298;2023-01-13T02:06:42;95596.20;;;3.24;89.33
6096;BME280;25081;42.698;23.298;2023-01-13T02:08:52;95598.85;;;3.20;88.99
6096;BME280;25081;42.698;23.298;2023-01-13T02:11:03;95588.64;;;3.29;89.30
6096;BME280;25081;42.698;23.298;2023-01-13T02:13:13;95589.95;;;3.33;88.84
6096;BME280;25081;42.698;23.298;2023-01-13T02:15:26;95597.19;;;3.27;88.60
6096;BME280;25081;42.698;23.298;2023-01-13T02:17:53;95592.59;;;3.21;88.80
6096;BME280;25081;42.698;23.298;2023-01-13T02:20:26;95592.09;;;3.13;89.24
6096;BME280;25081;42.698;23.298;2023-01-13T02:22:43;95593.41;;;3.13;89.37
6096;BME280;25081;42.698;23.298;2023-01-13T02:25:05;95592.41;;;3.18;89.66
6096;BME280;25081;42.698;23.298;2023-01-13T02:27:43;95588.78;;;3.27;89.40
6096;BME280;25081;42.698;23.298;2023-01-13T02:30:02;95588.31;;;3.20;89.15
6096;BME280;25081;42.698;23.298;2023-01-13T02:32:32;95591.75;;;3.16;89.03
6096;BME280;25081;42.698;23.298;2023-01-13T02:34:41;95594.39;;;3.16;89.58
6096;BME280;25081;42.698;23.298;2023-01-13T02:36:52;95589.30;;;3.23;89.30
6096;BME280;25081;42.698;23.298;2023-01-13T02:39:03;95595.06;;;3.22;88.97
6096;BME280;25081;42.698;23.298;2023-01-13T02:41:13;95592.26;;;3.32;89.08
6096;BME280;25081;42.698;23.298;2023-01-13T02:43:40;95582.37;;;3.26;88.72
6096;BME280;25081;42.698;23.298;2023-01-13T02:46:09;95595.72;;;3.20;88.82
6096;BME280;25081;42.698;23.298;2023-01-13T02:48:20;95587.50;;;3.19;89.07
6096;BME280;25081;42.698;23.298;2023-01-13T02:50:31;95585.17;;;3.24;89.08
6096;BME280;25081;42.698;23.298;2023-01-13T02:52:41;95590.28;;;3.22;89.04
6096;BME280;25081;42.698;23.298;2023-01-13T02:54:53;95592.92;;;3.30;89.03
6096;BME280;25081;42.698;23.298;2023-01-13T02:57:03;95587.33;;;3.29;88.63
6096;BME280;25081;42.698;23.298;2023-01-13T02:59:13;95599.33;;;3.15;89.05
6096;BME280;25081;42.698;23.298;2023-01-13T03:01:23;95584.53;;;3.10;89.88
6096;BME280;25081;42.698;23.298;2023-01-13T03:03:34;95582.22;;;3.11;89.33
6096;BME280;25081;42.698;23.298;2023-01-13T03:05:45;95582.53;;;3.24;89.52
6096;BME280;25081;42.698;23.298;2023-01-13T03:08:06;95580.41;;;3.20;89.04
6096;BME280;25081;42.698;23.298;2023-01-13T03:10:33;95585.66;;;3.15;89.07
6096;BME280;25081;42.698;23.298;2023-01-13T03:12:43;95581.88;;;3.06;89.46
6096;BME280;25081;42.698;23.298;2023-01-13T03:14:54;95587.47;;;3.07;89.62
6096;BME280;25081;42.698;23.298;2023-01-13T03:17:10;95579.07;;;3.07;89.77
6096;BME280;25081;42.698;23.298;2023-01-13T03:19:29;95582.86;;;3.05;89.80
6096;BME280;25081;42.698;23.298;2023-01-13T03:21:41;95583.69;;;3.05;89.95
6096;BME280;25081;42.698;23.298;2023-01-13T03:23:51;95584.19;;;3.05;89.92
6096;BME280;25081;42.698;23.298;2023-01-13T03:26:04;95585.02;;;3.13;89.92
6096;BME280;25081;42.698;23.298;2023-01-13T03:28:16;95586.67;;;3.19;89.76
6096;BME280;25081;42.698;23.298;2023-01-13T03:30:25;95583.38;;;3.21;89.36
6096;BME280;25081;42.698;23.298;2023-01-13T03:32:35;95589.12;;;3.16;89.29
6096;BME280;25081;42.698;23.298;2023-01-13T03:34:46;95587.14;;;3.06;89.56
6096;BME280;25081;42.698;23.298;2023-01-13T03:36:55;95591.10;;;3.02;90.02
6096;BME280;25081;42.698;23.298;2023-01-13T03:39:06;95595.86;;;2.98;90.20
6096;BME280;25081;42.698;23.298;2023-01-13T03:41:17;95592.73;;;3.07;90.29
6096;BME280;25081;42.698;23.298;2023-01-13T03:43:29;95595.05;;;3.14;89.91
6096;BME280;25081;42.698;23.298;2023-01-13T03:45:57;95597.69;;;3.22;89.68
6096;BME280;25081;42.698;23.298;2023-01-13T03:48:07;95594.72;;;3.25;89.14
6096;BME280;25081;42.698;23.298;2023-01-13T03:50:19;95596.37;;;3.22;89.03
6096;BME280;25081;42.698;23.298;2023-01-13T03:52:29;95598.85;;;3.20;89.22
6096;BME280;25081;42.698;23.298;2023-01-13T03:54:43;95599.00;;;3.06;89.53
6096;BME280;25081;42.698;23.298;2023-01-13T03:56:53;95603.59;;;3.08;89.56
6096;BME280;25081;42.698;23.298;2023-01-13T03:59:03;95601.16;;;3.10;89.72
6096;BME280;25081;42.698;23.298;2023-01-13T04:01:15;95599.83;;;3.14;89.77
6096;BME280;25081;42.698;23.298;2023-01-13T04:05:43;95593.41;;;3.41;89.16
6096;BME280;25081;42.698;23.298;2023-01-13T04:07:57;95593.58;;;3.32;88.55
6096;BME280;25081;42.698;23.298;2023-01-13T04:10:08;95598.83;;;3.15;88.94
6096;BME280;25081;42.698;23.298;2023-01-13T04:12:19;95604.28;;;3.22;89.03
6096;BME280;25081;42.698;23.298;2023-01-13T04:14:29;95599.67;;;3.20;89.02
6096;BME280;25081;42.698;23.298;2023-01-13T04:16:39;95608.22;;;3.14;89.32
6096;BME280;25081;42.698;23.298;2023-01-13T04:18:49;95602.45;;;3.02;89.58
6096;BME280;25081;42.698;23.298;2023-01-13T04:21:00;95605.08;;;2.94;89.93
6096;BME280;25081;42.698;23.298;2023-01-13T04:23:10;95609.54;;;3.02;90.37
6096;BME280;25081;42.698;23.298;2023-01-13T04:25:21;95612.33;;;3.04;90.63
6096;BME280;25081;42.698;23.298;2023-01-13T04:27:31;95610.84;;;3.06;90.46
6096;BME280;25081;42.698;23.298;2023-01-13T04:29:41;95612.02;;;3.11;90.13
6096;BME280;25081;42.698;23.298;2023-01-13T04:31:52;95607.05;;;3.08;89.91
6096;BME280;25081;42.698;23.298;2023-01-13T04:34:02;95617.30;;;3.20;90.07
6096;BME280;25081;42.698;23.298;2023-01-13T04:36:13;95615.95;;;3.28;89.51
6096;BME280;25081;42.698;23.298;2023-01-13T04:38:24;95612.34;;;3.33;89.72
6096;BME280;25081;42.698;23.298;2023-01-13T04:40:34;95617.43;;;3.18;89.22
6096;BME280;25081;42.698;23.298;2023-01-13T04:42:45;95616.95;;;3.14;89.57
6096;BME280;25081;42.698;23.298;2023-01-13T04:44:55;95620.56;;;3.18;90.00
6096;BME280;25081;42.698;23.298;2023-01-13T04:47:06;95618.61;;;3.20;89.87
6096;BME280;25081;42.698;23.298;2023-01-13T04:49:16;95614.14;;;3.04;89.91
6096;BME280;25081;42.698;23.298;2023-01-13T04:51:26;95617.09;;;2.93;90.72
6096;BME280;25081;42.698;23.298;2023-01-13T04:53:37;95617.28;;;2.99;90.93
6096;BME280;25081;42.698;23.298;2023-01-13T04:55:47;95620.40;;;3.03;90.98
6096;BME280;25081;42.698;23.298;2023-01-13T04:58:03;95617.11;;;3.13;90.48
6096;BME280;25081;42.698;23.298;2023-01-13T05:00:16;95617.95;;;3.09;90.07
6096;BME280;25081;42.698;23.298;2023-01-13T05:02:25;95618.91;;;3.16;90.03
6096;BME280;25081;42.698;23.298;2023-01-13T05:04:36;95617.13;;;3.21;90.07
6096;BME280;25081;42.698;23.298;2023-01-13T05:06:46;95625.48;;;3.08;89.76
6096;BME280;25081;42.698;23.298;2023-01-13T05:08:56;95629.79;;;3.13;89.99
6096;BME280;25081;42.698;23.298;2023-01-13T05:11:07;95633.06;;;3.07;90.04
6096;BME280;25081;42.698;23.298;2023-01-13T05:13:36;95624.83;;;3.06;90.28
6096;BME280;25081;42.698;23.298;2023-01-13T05:16:07;95621.05;;;3.05;90.36
6096;BME280;25081;42.698;23.298;2023-01-13T05:18:35;95625.17;;;3.03;90.60
6096;BME280;25081;42.698;23.298;2023-01-13T05:20:45;95620.55;;;3.05;90.42
6096;BME280;25081;42.698;23.298;2023-01-13T05:22:56;95628.80;;;3.02;90.85
6096;BME280;25081;42.698;23.298;2023-01-13T05:25:24;95630.44;;;3.03;90.74
6096;BME280;25081;42.698;23.298;2023-01-13T05:27:34;95624.83;;;3.06;91.09
6096;BME280;25081;42.698;23.298;2023-01-13T05:29:45;95631.94;;;3.10;90.62
6096;BME280;25081;42.698;23.298;2023-01-13T05:31:55;95633.23;;;3.18;90.54
6096;BME280;25081;42.698;23.298;2023-01-13T05:34:06;95634.24;;;3.09;90.59
6096;BME280;25081;42.698;23.298;2023-01-13T05:36:16;95632.42;;;3.01;90.70
6096;BME280;25081;42.698;23.298;2023-01-13T05:38:26;95631.42;;;3.02;91.16
6096;BME280;25081;42.698;23.298;2023-01-13T05:40:37;95634.57;;;3.10;90.97
6096;BME280;25081;42.698;23.298;2023-01-13T05:43:07;95636.55;;;3.12;91.07
6096;BME280;25081;42.698;23.298;2023-01-13T05:45:31;95632.09;;;3.16;90.71
6096;BME280;25081;42.698;23.298;2023-01-13T05:47:41;95634.39;;;3.15;90.41
6096;BME280;25081;42.698;23.298;2023-01-13T05:49:51;95637.20;;;3.22;90.51
6096;BME280;25081;42.698;23.298;2023-01-13T05:52:02;95641.65;;;3.09;90.73
6096;BME280;25081;42.698;23.298;2023-01-13T05:54:13;95638.02;;;3.14;90.96
6096;BME280;25081;42.698;23.298;2023-01-13T05:56:23;95641.00;;;3.20;90.83
6096;BME280;25081;42.698;23.298;2023-01-13T05:58:34;95642.14;;;3.25;90.51
6096;BME280;25081;42.698;23.298;2023-01-13T06:03:03;95637.03;;;3.28;90.36
6096;BME280;25081;42.698;23.298;2023-01-13T06:05:13;95644.77;;;3.25;90.17
6096;BME280;25081;42.698;23.298;2023-01-13T06:07:24;95645.45;;;3.31;90.47
6096;BME280;25081;42.698;23.298;2023-01-13T06:09:34;95647.92;;;3.49;90.59
6096;BME280;25081;42.698;23.298;2023-01-13T06:11:45;95645.44;;;3.35;89.99
6096;BME280;25081;42.698;23.298;2023-01-13T06:13:55;95655.81;;;3.33;90.11
6096;BME280;25081;42.698;23.298;2023-01-13T06:16:06;95658.79;;;3.42;90.33
6096;BME280;25081;42.698;23.298;2023-01-13T06:18:17;95656.96;;;3.47;89.72
6096;BME280;25081;42.698;23.298;2023-01-13T06:20:28;95655.17;;;3.39;89.63
6096;BME280;25081;42.698;23.298;2023-01-13T06:22:39;95662.91;;;3.40;89.63
6096;BME280;25081;42.698;23.298;2023-01-13T06:24:49;95669.50;;;3.40;89.70
6096;BME280;25081;42.698;23.298;2023-01-13T06:26:59;95661.77;;;3.39;89.47
6096;BME280;25081;42.698;23.298;2023-01-13T06:29:10;95667.01;;;3.47;89.46
6096;BME280;25081;42.698;23.298;2023-01-13T06:31:20;95670.48;;;3.52;89.18
6096;BME280;25081;42.698;23.298;2023-01-13T06:33:31;95662.26;;;3.38;89.19
6096;BME280;25081;42.698;23.298;2023-01-13T06:35:42;95666.19;;;3.34;89.37
6096;BME280;25081;42.698;23.298;2023-01-13T06:37:52;95667.67;;;3.37;89.72
6096;BME280;25081;42.698;23.298;2023-01-13T06:40:02;95669.48;;;3.36;89.79
6096;BME280;25081;42.698;23.298;2023-01-13T06:42:12;95668.68;;;3.40;89.63
6096;BME280;25081;42.698;23.298;2023-01-13T06:44:40;95668.50;;;3.45;89.40
6096;BME280;25081;42.698;23.298;2023-01-13T06:46:51;95669.97;;;3.36;89.73
6096;BME280;25081;42.698;23.298;2023-01-13T06:49:02;95672.28;;;3.47;89.67
6096;BME280;25081;42.698;23.298;2023-01-13T06:51:12;95661.27;;;3.48;89.64
6096;BME280;25081;42.698;23.298;2023-01-13T06:53:23;95666.38;;;3.49;89.27
6096;BME280;25081;42.698;23.298;2023-01-13T06:55:33;95660.61;;;3.50;89.24
6096;BME280;25081;42.698;23.298;2023-01-13T06:57:51;95665.23;;;3.48;89.38
6096;BME280;25081;42.698;23.298;2023-01-13T07:00:01;95665.72;;;3.59;89.19
6096;BME280;25081;42.698;23.298;2023-01-13T07:02:11;95663.05;;;3.47;89.02
6096;BME280;25081;42.698;23.298;2023-01-13T07:04:22;95669.16;;;3.43;89.28
6096;BME280;25081;42.698;23.298;2023-01-13T07:06:33;95663.23;;;3.54;89.39
6096;BME280;25081;42.698;23.298;2023-01-13T07:08:43;95660.94;;;3.59;88.88
6096;BME280;25081;42.698;23.298;2023-01-13T07:10:55;95662.09;;;3.68;88.58
6096;BME280;25081;42.698;23.298;2023-01-13T07:13:06;95661.75;;;3.63;88.62
6096;BME280;25081;42.698;23.298;2023-01-13T07:15:34;95660.26;;;3.57;88.32
6096;BME280;25081;42.698;23.298;2023-01-13T07:17:44;95657.95;;;3.54;88.82
6096;BME280;25081;42.698;23.298;2023-01-13T07:19:55;95659.44;;;3.56;88.88
6096;BME280;25081;42.698;23.298;2023-01-13T07:22:05;95658.61;;;3.72;88.92
6096;BME280;25081;42.698;23.298;2023-01-13T07:24:15;95653.66;;;3.81;88.22
6096;BME280;25081;42.698;23.298;2023-01-13T07:26:26;95650.51;;;3.86;88.04
6096;BME280;25081;42.698;23.298;2023-01-13T07:28:37;95659.05;;;4.04;87.39
6096;BME280;25081;42.698;23.298;2023-01-13T07:30:47;95661.67;;;4.12;87.17
6096;BME280;25081;42.698;23.298;2023-01-13T07:32:57;95656.97;;;4.47;86.97
6096;BME280;25081;42.698;23.298;2023-01-13T07:35:08;95660.42;;;4.43;85.15
6096;BME280;25081;42.698;23.298;2023-01-13T07:37:19;95655.41;;;4.17;85.25
6096;BME280;25081;42.698;23.298;2023-01-13T07:39:29;95651.63;;;4.59;88.92
6096;BME280;25081;42.698;23.298;2023-01-13T07:41:39;95649.45;;;4.67;84.36
6096;BME280;25081;42.698;23.298;2023-01-13T07:44:08;95652.28;;;4.96;83.83
6096;BME280;25081;42.698;23.298;2023-01-13T07:46:19;95651.37;;;5.12;82.05
6096;BME280;25081;42.698;23.298;2023-01-13T07:48:30;95659.61;;;5.13;80.99
6096;BME280;25081;42.698;23.298;2023-01-13T07:50:40;95658.84;;;5.04;81.08
6096;BME280;25081;42.698;23.298;2023-01-13T07:52:50;95659.26;;;5.16;81.27
6096;BME280;25081;42.698;23.298;2023-01-13T07:55:01;95660.58;;;5.39;79.85
6096;BME280;25081;42.698;23.298;2023-01-13T07:57:11;95653.10;;;5.24;79.30
6096;BME280;25081;42.698;23.298;2023-01-13T07:59:22;95651.17;;;5.40;79.56
6096;BME280;25081;42.698;23.298;2023-01-13T08:01:32;95662.72;;;5.16;78.79
6096;BME280;25081;42.698;23.298;2023-01-13T08:03:43;95660.54;;;5.20;79.88
6096;BME280;25081;42.698;23.298;2023-01-13T08:05:53;95659.11;;;5.36;79.07
6096;BME280;25081;42.698;23.298;2023-01-13T08:08:03;95664.73;;;5.60;77.86
6096;BME280;25081;42.698;23.298;2023-01-13T08:10:14;95663.23;;;5.81;76.50
6096;BME280;25081;42.698;23.298;2023-01-13T08:12:25;95659.67;;;5.88;75.78
6096;BME280;25081;42.698;23.298;2023-01-13T08:14:53;95658.02;;;5.72;76.36
6096;BME280;25081;42.698;23.298;2023-01-13T08:17:03;95660.76;;;5.37;77.93
6096;BME280;25081;42.698;23.298;2023-01-13T08:19:14;95662.53;;;5.45;77.65
6096;BME280;25081;42.698;23.298;2023-01-13T08:21:24;95663.41;;;5.60;76.95
6096;BME280;25081;42.698;23.298;2023-01-13T08:23:35;95658.95;;;5.80;77.17
6096;BME280;25081;42.698;23.298;2023-01-13T08:25:45;95661.37;;;6.08;75.63
6096;BME280;25081;42.698;23.298;2023-01-13T08:27:56;95657.78;;;6.49;75.09
6096;BME280;25081;42.698;23.298;2023-01-13T08:30:08;95658.77;;;6.63;73.59
6096;BME280;25081;42.698;23.298;2023-01-13T08:32:19;95657.26;;;7.05;72.24
6096;BME280;25081;42.698;23.298;2023-01-13T08:34:29;95657.72;;;7.30;70.98
6096;BME280;25081;42.698;23.298;2023-01-13T08:36:39;95655.14;;;7.36;70.08
6096;BME280;25081;42.698;23.298;2023-01-13T08:38:50;95654.95;;;7.38;70.16
6096;BME280;25081;42.698;23.298;2023-01-13T08:41:00;95654.02;;;7.45;69.10
6096;BME280;25081;42.698;23.298;2023-01-13T08:43:10;95658.65;;;7.22;69.98
6096;BME280;25081;42.698;23.298;2023-01-13T08:45:21;95655.23;;;7.07;70.54
6096;BME280;25081;42.698;23.298;2023-01-13T08:47:32;95657.67;;;7.34;70.67
6096;BME280;25081;42.698;23.298;2023-01-13T08:49:42;95659.11;;;7.26;70.82
6096;BME280;25081;42.698;23.298;2023-01-13T08:51:53;95653.19;;;7.34;69.54
6096;BME280;25081;42.698;23.298;2023-01-13T08:54:03;95651.09;;;7.40;69.89
6096;BME280;25081;42.698;23.298;2023-01-13T08:56:14;95653.62;;;7.59;68.86
6096;BME280;25081;42.698;23.298;2023-01-13T08:58:24;95656.07;;;7.71;69.48
6096;BME280;25081;42.698;23.298;2023-01-13T09:00:35;95652.28;;;7.91;68.72
6096;BME280;25081;42.698;23.298;2023-01-13T09:02:45;95653.91;;;8.03;67.50
6096;BME280;25081;42.698;23.298;2023-01-13T09:04:56;95655.09;;;8.11;66.59
6096;BME280;25081;42.698;23.298;2023-01-13T09:07:06;95655.06;;;8.22;66.80
6096;BME280;25081;42.698;23.298;2023-01-13T09:09:17;95647.73;;;8.58;65.91
6096;BME280;25081;42.698;23.298;2023-01-13T09:11:29;95649.05;;;8.69;65.15
6096;BME280;25081;42.698;23.298;2023-01-13T09:13:56;95653.86;;;8.76;64.80
6096;BME280;25081;42.698;23.298;2023-01-13T09:16:07;95648.38;;;8.60;64.46
6096;BME280;25081;42.698;23.298;2023-01-13T09:18:18;95651.77;;;8.48;64.84
6096;BME280;25081;42.698;23.298;2023-01-13T09:20:28;95644.00;;;8.46;65.09
6096;BME280;25081;42.698;23.298;2023-01-13T09:22:38;95651.24;;;8.59;65.11
6096;BME280;25081;42.698;23.298;2023-01-13T09:24:49;95649.42;;;8.66;64.68
6096;BME280;25081;42.698;23.298;2023-01-13T09:27:00;95649.29;;;8.40;65.83
6096;BME280;25081;42.698;23.298;2023-01-13T09:29:10;95651.28;;;8.10;65.89
6096;BME280;25081;42.698;23.298;2023-01-13T09:31:20;95649.77;;;7.40;68.28
6096;BME280;25081;42.698;23.298;2023-01-13T09:33:31;95637.32;;;7.41;68.91
6096;BME280;25081;42.698;23.298;2023-01-13T09:35:59;95648.24;;;7.53;68.57
6096;BME280;25081;42.698;23.298;2023-01-13T09:38:09;95643.33;;;7.39;68.16
6096;BME280;25081;42.698;23.298;2023-01-13T09:40:20;95645.19;;;7.13;69.36
6096;BME280;25081;42.698;23.298;2023-01-13T09:42:36;95640.46;;;7.08;69.49
6096;BME280;25081;42.698;23.298;2023-01-13T09:45:03;95643.02;;;7.49;68.47
6096;BME280;25081;42.698;23.298;2023-01-13T09:47:16;95641.11;;;7.74;68.07
6096;BME280;25081;42.698;23.298;2023-01-13T09:49:27;95641.15;;;7.81;67.77
6096;BME280;25081;42.698;23.298;2023-01-13T09:51:38;95635.84;;;7.81;66.64
6096;BME280;25081;42.698;23.298;2023-01-13T09:53:48;95643.88;;;7.77;67.54
6096;BME280;25081;42.698;23.298;2023-01-13T09:55:58;95639.55;;;7.48;67.62
6096;BME280;25081;42.698;23.298;2023-01-13T09:58:12;95633.46;;;7.33;68.40
6096;BME280;25081;42.698;23.298;2023-01-13T10:00:23;95635.99;;;7.41;68.29
6096;BME280;25081;42.698;23.298;2023-01-13T10:02:38;95630.95;;;7.46;67.69
6096;BME280;25081;42.698;23.298;2023-01-13T10:05:09;95623.09;;;7.70;67.07
6096;BME280;25081;42.698;23.298;2023-01-13T10:07:18;95629.28;;;7.77;66.77
6096;BME280;25081;42.698;23.298;2023-01-13T10:09:32;95625.62;;;7.78;67.30
6096;BME280;25081;42.698;23.298;2023-01-13T10:11:40;95621.22;;;7.42;67.99
6096;BME280;25081;42.698;23.298;2023-01-13T10:14:12;95613.72;;;7.35;68.36
6096;BME280;25081;42.698;23.298;2023-01-13T10:16:25;95620.47;;;7.27;69.33
6096;BME280;25081;42.698;23.298;2023-01-13T10:18:40;95626.03;;;7.54;68.66
6096;BME280;25081;42.698;23.298;2023-01-13T10:20:53;95621.23;;;7.64;67.93
6096;BME280;25081;42.698;23.298;2023-01-13T10:23:06;95621.83;;;7.77;67.01
6096;BME280;25081;42.698;23.298;2023-01-13T10:25:25;95622.20;;;7.84;67.74
6096;BME280;25081;42.698;23.298;2023-01-13T10:27:35;95616.56;;;7.94;67.47
6096;BME280;25081;42.698;23.298;2023-01-13T10:29:45;95617.21;;;7.85;66.85
6096;BME280;25081;42.698;23.298;2023-01-13T10:31:56;95612.79;;;7.71;66.51
6096;BME280;25081;42.698;23.298;2023-01-13T10:34:06;95604.83;;;7.71;66.68
6096;BME280;25081;42.698;23.298;2023-01-13T10:36:16;95608.25;;;7.75;66.81
6096;BME280;25081;42.698;23.298;2023-01-13T10:38:28;95607.50;;;7.60;67.06
6096;BME280;25081;42.698;23.298;2023-01-13T10:40:38;95610.12;;;7.54;67.51
6096;BME280;25081;42.698;23.298;2023-01-13T10:42:48;95601.44;;;7.66;67.07
6096;BME280;25081;42.698;23.298;2023-01-13T10:44:59;95608.23;;;7.86;66.27
6096;BME280;25081;42.698;23.298;2023-01-13T10:47:15;95598.53;;;7.61;66.44
6096;BME280;25081;42.698;23.298;2023-01-13T10:49:32;95596.15;;;7.56;67.23
6096;BME280;25081;42.698;23.298;2023-01-13T10:51:45;95597.80;;;7.46;68.00
6096;BME280;25081;42.698;23.298;2023-01-13T10:53:57;95550.25;;;7.12;67.88
6096;BME280;25081;42.698;23.298;2023-01-13T10:56:09;95598.48;;;7.23;68.85
6096;BME280;25081;42.698;23.298;2023-01-13T10:58:19;95590.30;;;6.81;71.10
6096;BME280;25081;42.698;23.298;2023-01-13T11:00:30;95591.12;;;6.82;71.14
6096;BME280;25081;42.698;23.298;2023-01-13T11:02:40;95588.58;;;7.10;70.92
6096;BME280;25081;42.698;23.298;2023-01-13T11:07:37;95588.77;;;6.98;69.93
6096;BME280;25081;42.698;23.298;2023-01-13T11:09:46;95590.98;;;7.05;70.50
6096;BME280;25081;42.698;23.298;2023-01-13T11:11:57;95590.84;;;7.13;70.59
6096;BME280;25081;42.698;23.298;2023-01-13T11:14:12;95586.82;;;7.17;70.58
6096;BME280;25081;42.698;23.298;2023-01-13T11:16:38;95587.13;;;7.07;70.37
6096;BME280;25081;42.698;23.298;2023-01-13T11:18:50;95581.05;;;7.03;70.88
6096;BME280;25081;42.698;23.298;2023-01-13T11:21:00;95570.83;;;7.00;70.60
6096;BME280;25081;42.698;23.298;2023-01-13T11:23:14;95582.84;;;6.96;71.08
6096;BME280;25081;42.698;23.298;2023-01-13T11:25:25;95584.02;;;7.04;71.19
6096;BME280;25081;42.698;23.298;2023-01-13T11:27:42;95578.86;;;7.28;70.63
6096;BME280;25081;42.698;23.298;2023-01-13T11:30:02;95575.95;;;7.12;70.02
6096;BME280;25081;42.698;23.298;2023-01-13T11:32:11;95567.56;;;7.08;70.23
6096;BME280;25081;42.698;23.298;2023-01-13T11:34:25;95576.21;;;7.06;70.61
6096;BME280;25081;42.698;23.298;2023-01-13T11:36:37;95569.39;;;7.08;70.31
6096;BME280;25081;42.698;23.298;2023-01-13T11:38:48;95573.99;;;7.10;70.74
6096;BME280;25081;42.698;23.298;2023-01-13T11:40:59;95574.58;;;7.05;70.82
6096;BME280;25081;42.698;23.298;2023-01-13T11:43:13;95576.64;;;7.10;70.97
6096;BME280;25081;42.698;23.298;2023-01-13T11:45:23;95568.11;;;6.93;70.55
6096;BME280;25081;42.698;23.298;2023-01-13T11:47:33;95568.08;;;6.72;72.29
6096;BME280;25081;42.698;23.298;2023-01-13T11:49:43;95563.41;;;6.74;72.14
6096;BME280;25081;42.698;23.298;2023-01-13T11:51:56;95568.77;;;6.59;72.93
6096;BME280;25081;42.698;23.298;2023-01-13T11:54:26;95565.40;;;6.50;73.32
6096;BME280;25081;42.698;23.298;2023-01-13T11:56:42;95565.30;;;6.58;73.57
6096;BME280;25081;42.698;23.298;2023-01-13T11:59:07;95561.64;;;6.59;73.22